Time;durP1;ratioP1;P1;durP2;ratioP2;P2;SDS_P1;SDS_P2;PMS_P1;PMS_P2;Temp;Humidity;BMP_temperature;BMP_pressure;BME280_temperature;BME280_humidity;BME280_pressure;Samples;Min_cycle;Max_cycle;Signal;HPM_P1;HPM_P2
2024/01/21 00:01:45;;;;;;;4.10;2.22;;;18.00;55.70;;;;;;5047580;28;20648;-72
2024/01/21 00:04:11;;;;;;;2.33;2.13;;;18.10;55.70;;;;;;5037954;28;20191;-71
2024/01/21 00:06:37;;;;;;;2.45;2.25;;;18.10;55.70;;;;;;5074361;28;20207;-72
2024/01/21 00:09:03;;;;;;;2.80;2.60;;;18.10;55.60;;;;;;5031414;28;20185;-72
2024/01/21 00:11:29;;;;;;;2.55;2.17;;;18.00;55.60;;;;;;5052490;28;20194;-71
2024/01/21 00:13:54;;;;;;;2.60;2.33;;;18.10;55.70;;;;;;5036587;28;20194;-72
2024/01/21 00:16:20;;;;;;;2.40;2.20;;;18.00;55.50;;;;;;5051987;28;20230;-71
2024/01/21 00:18:46;;;;;;;2.50;2.17;;;18.00;55.50;;;;;;5068690;28;20198;-72
2024/01/21 00:21:11;;;;;;;2.53;2.33;;;18.00;55.50;;;;;;5036722;28;20187;-72
2024/01/21 00:23:37;;;;;;;3.00;2.70;;;18.00;55.40;;;;;;5052763;28;20670;-73
2024/01/21 00:26:03;;;;;;;2.17;1.98;;;18.00;55.40;;;;;;5051773;28;20763;-72
2024/01/21 00:28:29;;;;;;;2.45;2.17;;;18.10;55.40;;;;;;5068569;28;20185;-72
2024/01/21 00:30:55;;;;;;;2.45;2.25;;;18.00;55.30;;;;;;5048498;28;20178;-73
2024/01/21 00:33:21;;;;;;;2.10;1.90;;;18.00;55.30;;;;;;5053257;28;20225;-72
2024/01/21 00:35:47;;;;;;;2.50;2.30;;;18.10;55.40;;;;;;5046509;28;20177;-73
2024/01/21 00:38:13;;;;;;;3.08;2.20;;;18.00;55.30;;;;;;5056521;28;20213;-73
2024/01/21 00:40:38;;;;;;;2.53;2.20;;;18.10;55.40;;;;;;5051725;28;20539;-72
2024/01/21 00:43:04;;;;;;;3.10;2.10;;;18.00;55.20;;;;;;5035434;28;20267;-73
2024/01/21 00:45:30;;;;;;;2.47;2.17;;;18.00;55.20;;;;;;5043344;28;20183;-72
2024/01/21 00:47:56;;;;;;;2.13;1.70;;;18.00;55.20;;;;;;5059877;28;20577;-72
2024/01/21 00:50:22;;;;;;;1.90;1.73;;;18.00;55.20;;;;;;5061565;28;20178;-72
2024/01/21 00:52:48;;;;;;;2.33;2.13;;;18.10;55.20;;;;;;5047055;28;20684;-73
2024/01/21 00:55:14;;;;;;;2.03;1.90;;;18.00;55.00;;;;;;5034693;28;20273;-72
2024/01/21 00:57:39;;;;;;;2.40;2.20;;;18.00;55.20;;;;;;5049822;28;20202;-72
2024/01/21 01:00:06;;;;;;;2.45;2.25;;;18.00;55.00;;;;;;5064535;28;20809;-72
2024/01/21 01:02:32;;;;;;;2.55;2.35;;;18.00;55.10;;;;;;5034194;28;20293;-73
2024/01/21 01:04:58;;;;;;;2.05;1.90;;;18.00;55.00;;;;;;5047504;28;20710;-72
2024/01/21 01:07:25;;;;;;;2.40;2.20;;;18.00;55.00;;;;;;5046609;28;20207;-72
2024/01/21 01:09:50;;;;;;;2.15;2.05;;;18.00;54.90;;;;;;5057762;28;20214;-72
2024/01/21 01:12:16;;;;;;;2.20;2.00;;;18.00;55.00;;;;;;5050509;28;20204;-72
2024/01/21 01:14:42;;;;;;;2.20;2.00;;;18.00;54.90;;;;;;5038258;28;20235;-72
2024/01/21 01:17:08;;;;;;;2.35;2.15;;;18.00;54.90;;;;;;5053112;28;20214;-72
2024/01/21 01:19:34;;;;;;;2.17;2.00;;;18.00;54.90;;;;;;5053957;28;20185;-72
2024/01/21 01:22:01;;;;;;;2.45;2.25;;;18.00;55.00;;;;;;5053333;28;20220;-72
2024/01/21 01:24:26;;;;;;;2.30;2.10;;;18.00;54.90;;;;;;5053139;28;20700;-72
2024/01/21 01:26:52;;;;;;;2.83;2.25;;;18.00;54.90;;;;;;5053640;28;20218;-72
2024/01/21 01:29:18;;;;;;;2.00;1.90;;;18.00;54.90;;;;;;5069605;28;20611;-71
2024/01/21 01:31:44;;;;;;;1.80;1.60;;;18.00;54.80;;;;;;5070296;28;20542;-71
2024/01/21 01:34:11;;;;;;;2.20;2.00;;;18.00;54.80;;;;;;5052954;28;20189;-71
2024/01/21 01:36:36;;;;;;;2.50;2.28;;;18.00;54.90;;;;;;5056402;28;20217;-72
2024/01/21 01:39:03;;;;;;;2.40;2.20;;;18.00;54.80;;;;;;5060790;28;20268;-72
2024/01/21 01:41:28;;;;;;;2.13;1.92;;;18.00;54.80;;;;;;5043925;28;20256;-72
2024/01/21 01:43:54;;;;;;;2.50;2.30;;;18.00;54.80;;;;;;5047919;28;20177;-72
2024/01/21 01:46:20;;;;;;;2.47;2.28;;;18.00;54.70;;;;;;5068664;28;20220;-72
2024/01/21 01:48:46;;;;;;;2.20;2.00;;;18.00;54.70;;;;;;5053053;28;20186;-72
2024/01/21 01:51:12;;;;;;;2.08;1.98;;;18.00;54.70;;;;;;5052074;28;20192;-71
2024/01/21 01:53:37;;;;;;;2.20;2.05;;;18.00;54.70;;;;;;5051817;28;20182;-72
2024/01/21 01:56:04;;;;;;;1.95;1.83;;;18.00;54.60;;;;;;5069661;28;20225;-71
2024/01/21 01:58:34;;;;;;;2.40;2.20;;;18.00;54.70;;;;;;5064374;28;20217;-71
2024/01/21 02:01:00;;;;;;;2.75;2.38;;;18.00;54.50;;;;;;5064352;28;20190;-71
2024/01/21 02:03:26;;;;;;;2.95;2.28;;;18.00;54.40;;;;;;5067759;28;20209;-71
2024/01/21 02:05:52;;;;;;;2.20;2.00;;;17.90;54.40;;;;;;5068954;28;20195;-71
2024/01/21 02:08:18;;;;;;;2.33;2.13;;;18.00;54.40;;;;;;5068056;28;20228;-72
2024/01/21 02:10:43;;;;;;;2.13;2.03;;;17.90;54.40;;;;;;5068268;28;20178;-72
2024/01/21 02:13:09;;;;;;;2.30;2.10;;;17.90;54.50;;;;;;5053669;28;20217;-72
2024/01/21 02:15:35;;;;;;;2.30;2.10;;;17.90;54.40;;;;;;5052355;28;20268;-72
2024/01/21 02:18:01;;;;;;;2.42;2.22;;;17.90;54.40;;;;;;5069964;28;20225;-72
2024/01/21 02:20:27;;;;;;;2.60;2.30;;;17.90;54.40;;;;;;5084099;28;20197;-72
2024/01/21 02:22:59;;;;;;;2.30;2.10;;;17.90;54.30;;;;;;5051304;28;20284;-72
2024/01/21 02:25:25;;;;;;;2.30;2.13;;;17.90;54.30;;;;;;5066618;28;20185;-72
2024/01/21 02:27:51;;;;;;;2.53;2.33;;;17.90;54.30;;;;;;5067797;28;20197;-72
2024/01/21 02:30:16;;;;;;;2.72;2.53;;;17.90;54.30;;;;;;5053226;28;20189;-72
2024/01/21 02:32:42;;;;;;;2.75;2.55;;;17.90;54.30;;;;;;5071493;28;20181;-71
2024/01/21 02:35:08;;;;;;;3.05;2.25;;;17.90;54.30;;;;;;5068868;28;20183;-72
2024/01/21 02:37:34;;;;;;;2.47;2.15;;;17.90;54.30;;;;;;5053422;28;20217;-71
2024/01/21 02:39:59;;;;;;;1.92;1.83;;;17.90;54.30;;;;;;5074081;28;20193;-71
2024/01/21 02:42:26;;;;;;;2.60;2.40;;;17.90;54.30;;;;;;5053492;28;20208;-72
2024/01/21 02:44:54;;;;;;;2.63;2.25;;;17.90;54.20;;;;;;5087930;28;20182;-72
2024/01/21 02:47:20;;;;;;;2.53;2.33;;;17.90;54.30;;;;;;5086614;28;20206;-72
2024/01/21 02:49:46;;;;;;;2.47;2.10;;;17.90;54.20;;;;;;5071097;28;20174;-72
2024/01/21 02:52:11;;;;;;;2.60;2.40;;;17.90;54.10;;;;;;5061269;28;20178;-72
2024/01/21 02:54:37;;;;;;;2.45;2.25;;;17.90;54.10;;;;;;5051244;28;20179;-72
2024/01/21 02:57:03;;;;;;;2.75;2.45;;;17.90;54.20;;;;;;5033722;28;20210;-71
2024/01/21 02:59:29;;;;;;;2.30;2.10;;;17.90;54.10;;;;;;5034113;28;20199;-71
2024/01/21 03:01:54;;;;;;;2.50;2.30;;;17.90;54.10;;;;;;5081556;28;20213;-71
2024/01/21 03:04:20;;;;;;;2.55;2.35;;;17.90;54.10;;;;;;5059462;28;20195;-71
2024/01/21 03:06:46;;;;;;;2.50;2.30;;;17.90;54.00;;;;;;5073178;28;20688;-72
2024/01/21 03:09:12;;;;;;;2.53;2.33;;;17.90;54.00;;;;;;5059605;28;20661;-71
2024/01/21 03:11:40;;;;;;;2.50;2.30;;;17.90;54.00;;;;;;5061572;28;20277;-72
2024/01/21 03:14:07;;;;;;;2.50;2.30;;;17.90;54.10;;;;;;5069462;28;20260;-73
2024/01/21 03:16:33;;;;;;;2.33;2.13;;;17.90;54.00;;;;;;5084460;28;20226;-72
2024/01/21 03:18:59;;;;;;;2.45;2.25;;;17.90;54.00;;;;;;5069493;28;20287;-72
2024/01/21 03:21:24;;;;;;;2.60;2.40;;;17.90;54.00;;;;;;5067251;28;20225;-72
2024/01/21 03:23:50;;;;;;;2.63;2.42;;;17.90;53.90;;;;;;5066943;28;20191;-71
2024/01/21 03:26:16;;;;;;;2.50;2.30;;;17.90;53.80;;;;;;5039721;28;20198;-73
2024/01/21 03:28:42;;;;;;;2.50;2.30;;;17.80;53.80;;;;;;5044859;28;20281;-72
2024/01/21 03:31:07;;;;;;;2.70;2.50;;;17.90;54.00;;;;;;5069212;28;20196;-72
2024/01/21 03:33:33;;;;;;;2.80;2.60;;;17.90;53.90;;;;;;5067864;28;20221;-72
2024/01/21 03:36:01;;;;;;;2.60;2.40;;;17.90;53.80;;;;;;5085702;28;20186;-72
2024/01/21 03:38:27;;;;;;;2.50;2.30;;;17.90;53.80;;;;;;5066713;28;20190;-72
2024/01/21 03:40:53;;;;;;;2.40;2.20;;;17.90;53.80;;;;;;5065150;28;20184;-71
2024/01/21 03:43:18;;;;;;;2.75;2.55;;;17.90;53.70;;;;;;5064527;28;20215;-72
2024/01/21 03:45:44;;;;;;;2.90;2.70;;;17.90;53.80;;;;;;5066338;28;20261;-71
2024/01/21 03:48:11;;;;;;;2.80;2.60;;;17.90;53.70;;;;;;5068177;28;20235;-71
2024/01/21 03:50:37;;;;;;;2.50;2.30;;;17.80;53.70;;;;;;5067928;28;20190;-71
2024/01/21 03:53:02;;;;;;;2.70;2.50;;;17.90;53.80;;;;;;5067931;28;20193;-71
2024/01/21 03:55:29;;;;;;;2.65;2.45;;;17.80;53.60;;;;;;5047853;28;20198;-72
2024/01/21 03:57:54;;;;;;;2.85;2.65;;;17.80;53.60;;;;;;5064117;28;20765;-71
2024/01/21 04:00:20;;;;;;;2.33;2.13;;;17.80;53.50;;;;;;5043327;28;20423;-72
2024/01/21 04:02:46;;;;;;;3.08;2.65;;;17.80;53.50;;;;;;5034872;28;20225;-71
2024/01/21 04:05:12;;;;;;;2.42;2.22;;;17.80;53.60;;;;;;5046878;28;20229;-71
2024/01/21 04:07:37;;;;;;;3.03;2.63;;;17.80;53.50;;;;;;5046338;28;20238;-71
2024/01/21 04:10:06;;;;;;;3.08;2.78;;;17.80;53.60;;;;;;5047142;28;20191;-71
2024/01/21 04:12:33;;;;;;;2.90;2.70;;;17.90;53.60;;;;;;5038435;28;20290;-72
2024/01/21 04:14:59;;;;;;;2.63;2.42;;;17.80;53.40;;;;;;5065743;28;20190;-71
2024/01/21 04:17:24;;;;;;;2.58;2.38;;;17.90;53.50;;;;;;5049872;28;20220;-71
2024/01/21 04:19:50;;;;;;;2.50;2.30;;;17.90;53.50;;;;;;5049501;28;20679;-72
2024/01/21 04:22:18;;;;;;;2.80;2.60;;;17.80;53.50;;;;;;5045525;28;20661;-72
2024/01/21 04:24:46;;;;;;;2.88;2.63;;;17.90;53.40;;;;;;5049412;28;20278;-72
2024/01/21 04:27:12;;;;;;;2.47;2.28;;;17.80;54.10;;;;;;5048693;28;20313;-72
2024/01/21 04:29:37;;;;;;;2.85;2.53;;;17.80;53.40;;;;;;5051529;28;20261;-71
2024/01/21 04:32:04;;;;;;;2.60;2.40;;;17.80;53.40;;;;;;5044749;28;20723;-71
2024/01/21 04:34:29;;;;;;;2.80;2.60;;;17.80;53.30;;;;;;5061719;28;20199;-71
2024/01/21 04:36:55;;;;;;;3.00;2.60;;;17.80;53.50;;;;;;5042910;28;20256;-71
2024/01/21 04:39:22;;;;;;;2.47;2.28;;;17.90;53.40;;;;;;5047113;28;20248;-71
2024/01/21 04:41:48;;;;;;;2.65;2.30;;;17.80;53.20;;;;;;5050887;28;20272;-71
2024/01/21 04:44:14;;;;;;;2.83;2.63;;;17.80;53.30;;;;;;5028405;28;20171;-72
2024/01/21 04:46:40;;;;;;;2.83;2.60;;;17.80;53.30;;;;;;5047203;28;20250;-71
2024/01/21 04:49:06;;;;;;;2.92;2.63;;;17.80;53.20;;;;;;5051277;28;20316;-71
2024/01/21 04:51:31;;;;;;;2.83;2.63;;;17.80;53.20;;;;;;5050272;28;20233;-71
2024/01/21 04:54:07;;;;;;;2.80;2.60;;;17.80;53.30;;;;;;5042282;28;20183;-71
2024/01/21 04:56:33;;;;;;;2.67;2.47;;;17.80;53.20;;;;;;5043930;28;20783;-70
2024/01/21 04:58:59;;;;;;;2.92;2.72;;;17.80;53.20;;;;;;5030919;28;20179;-71
2024/01/21 05:01:26;;;;;;;2.78;2.58;;;17.80;53.30;;;;;;5046051;28;20194;-71
2024/01/21 05:03:52;;;;;;;2.72;2.53;;;17.80;53.20;;;;;;5063549;28;20213;-71
2024/01/21 05:06:18;;;;;;;2.83;2.63;;;17.80;53.20;;;;;;5049146;28;20233;-72
2024/01/21 05:08:44;;;;;;;2.90;2.60;;;17.80;53.20;;;;;;5050438;28;20182;-72
2024/01/21 05:11:14;;;;;;;2.83;2.63;;;17.80;53.20;;;;;;5061063;28;20183;-72
2024/01/21 05:13:40;;;;;;;2.70;2.50;;;17.80;53.10;;;;;;5044210;28;20282;-71
2024/01/21 05:16:06;;;;;;;2.58;2.38;;;17.80;53.10;;;;;;5061243;28;20209;-71
2024/01/21 05:18:32;;;;;;;2.83;2.63;;;17.80;53.20;;;;;;5041426;28;20194;-72
2024/01/21 05:20:58;;;;;;;2.83;2.63;;;17.80;53.10;;;;;;5049896;28;20190;-72
2024/01/21 05:23:23;;;;;;;2.90;2.70;;;17.80;53.00;;;;;;5037976;28;20256;-72
2024/01/21 05:25:52;;;;;;;2.83;2.63;;;17.80;53.10;;;;;;5030169;28;20313;-72
2024/01/21 05:28:18;;;;;;;3.15;2.90;;;17.80;53.00;;;;;;5041024;28;20668;-72
2024/01/21 05:30:44;;;;;;;3.17;2.88;;;17.80;53.10;;;;;;5028097;28;20324;-72
2024/01/21 05:33:10;;;;;;;2.67;2.47;;;17.80;53.00;;;;;;5043649;28;20193;-72
2024/01/21 05:35:35;;;;;;;3.30;3.00;;;17.80;53.00;;;;;;5043141;28;20186;-72
2024/01/21 05:38:01;;;;;;;3.05;2.78;;;17.80;53.10;;;;;;5029067;28;20218;-72
2024/01/21 05:40:27;;;;;;;3.00;2.80;;;17.80;53.10;;;;;;5038369;28;20192;-71
2024/01/21 05:42:53;;;;;;;3.20;2.90;;;17.80;53.00;;;;;;5039201;28;20213;-71
2024/01/21 05:45:19;;;;;;;3.08;2.83;;;17.80;53.00;;;;;;5049056;28;20191;-71
2024/01/21 05:47:45;;;;;;;2.88;2.67;;;17.80;53.00;;;;;;5047856;28;20606;-71
2024/01/21 05:50:11;;;;;;;3.05;2.78;;;17.80;53.00;;;;;;5059459;28;20193;-71
2024/01/21 05:52:37;;;;;;;3.10;2.90;;;17.80;52.90;;;;;;5058932;28;20677;-72
2024/01/21 05:55:04;;;;;;;3.28;2.97;;;17.80;53.00;;;;;;5039270;28;20201;-72
2024/01/21 05:57:30;;;;;;;3.10;2.90;;;17.80;53.00;;;;;;5067269;28;20603;-71
2024/01/21 05:59:56;;;;;;;3.00;2.80;;;17.80;53.00;;;;;;5044440;28;20686;-72
2024/01/21 06:02:22;;;;;;;3.20;2.90;;;17.80;53.00;;;;;;5077706;28;20263;-71
2024/01/21 06:04:50;;;;;;;3.25;3.00;;;17.80;53.00;;;;;;5051140;28;20182;-72
2024/01/21 06:07:16;;;;;;;3.40;3.10;;;17.80;52.90;;;;;;5044740;28;20209;-73
2024/01/21 06:09:42;;;;;;;2.90;2.70;;;17.80;53.00;;;;;;5071621;28;20186;-72
2024/01/21 06:12:08;;;;;;;3.13;2.90;;;17.80;52.90;;;;;;5037344;28;20198;-72
2024/01/21 06:14:34;;;;;;;3.25;2.95;;;17.80;52.90;;;;;;5046468;28;20191;-72
2024/01/21 06:17:00;;;;;;;3.20;2.90;;;17.80;52.90;;;;;;5035203;28;20223;-71
2024/01/21 06:19:25;;;;;;;2.97;2.78;;;17.80;53.00;;;;;;5040686;28;20195;-71
2024/01/21 06:21:51;;;;;;;3.50;3.20;;;17.80;53.00;;;;;;5042769;28;20210;-71
2024/01/21 06:24:17;;;;;;;3.00;2.80;;;17.80;52.90;;;;;;5043912;28;20661;-71
2024/01/21 06:26:44;;;;;;;3.45;3.15;;;17.80;52.90;;;;;;5063479;28;20203;-71
2024/01/21 06:29:10;;;;;;;3.00;2.80;;;17.80;52.80;;;;;;5033637;28;20182;-72
2024/01/21 06:31:36;;;;;;;3.20;2.92;;;17.80;52.80;;;;;;5057410;28;20178;-72
2024/01/21 06:34:02;;;;;;;3.00;2.80;;;17.80;52.80;;;;;;5040674;28;20183;-71
2024/01/21 06:36:28;;;;;;;3.22;3.03;;;17.70;52.80;;;;;;5035902;28;20591;-72
2024/01/21 06:38:53;;;;;;;3.05;2.85;;;17.80;52.80;;;;;;5036649;28;20194;-72
2024/01/21 06:41:19;;;;;;;2.88;2.67;;;17.80;52.80;;;;;;5061879;28;20183;-72
2024/01/21 06:43:45;;;;;;;2.58;2.38;;;17.80;52.80;;;;;;5052122;28;20214;-72
2024/01/21 06:46:12;;;;;;;2.95;2.75;;;17.80;52.80;;;;;;5066449;28;20201;-71
2024/01/21 06:48:38;;;;;;;2.88;2.67;;;17.70;52.70;;;;;;5029999;28;20241;-71
2024/01/21 06:51:10;;;;;;;3.08;2.88;;;17.80;52.70;;;;;;5046672;28;20217;-71
2024/01/21 06:53:36;;;;;;;3.47;3.17;;;17.80;52.70;;;;;;5029674;28;20434;-71
2024/01/21 06:56:07;;;;;;;3.25;2.95;;;17.80;52.70;;;;;;5054854;28;20191;-72
2024/01/21 06:58:34;;;;;;;3.35;3.05;;;17.70;52.60;;;;;;5043630;28;20673;-73
2024/01/21 07:00:59;;;;;;;3.03;2.83;;;17.80;52.70;;;;;;5047545;28;20186;-72
2024/01/21 07:03:25;;;;;;;3.55;3.30;;;17.80;52.60;;;;;;5040822;28;20213;-72
2024/01/21 07:05:51;;;;;;;3.42;3.13;;;17.80;52.70;;;;;;5035327;28;20274;-72
2024/01/21 07:08:18;;;;;;;3.10;2.90;;;17.80;52.70;;;;;;5039994;28;20188;-71
2024/01/21 07:10:44;;;;;;;3.00;2.80;;;17.80;52.60;;;;;;5044828;28;20233;-71
2024/01/21 07:13:11;;;;;;;3.50;3.08;;;17.70;52.60;;;;;;5043995;28;20605;-71
2024/01/21 07:15:37;;;;;;;3.10;2.90;;;17.80;52.60;;;;;;5042636;28;20676;-71
2024/01/21 07:18:03;;;;;;;3.15;2.95;;;17.70;52.60;;;;;;5056029;28;20268;-71
2024/01/21 07:20:29;;;;;;;3.42;3.13;;;17.80;52.70;;;;;;5043439;28;20185;-72
2024/01/21 07:22:56;;;;;;;3.10;2.83;;;17.70;52.50;;;;;;5035097;28;20606;-72
2024/01/21 07:25:22;;;;;;;3.28;2.97;;;17.80;52.70;;;;;;5038701;28;20186;-72
2024/01/21 07:27:48;;;;;;;3.85;3.55;;;17.70;52.50;;;;;;5037651;28;20214;-72
2024/01/21 07:30:14;;;;;;;3.60;3.30;;;17.70;52.60;;;;;;5041663;28;20187;-72
2024/01/21 07:32:40;;;;;;;3.67;3.38;;;17.80;52.60;;;;;;5029259;28;20189;-73
2024/01/21 07:35:10;;;;;;;4.10;3.70;;;17.80;52.60;;;;;;5034592;28;20186;-73
2024/01/21 07:37:37;;;;;;;4.05;3.67;;;17.70;52.50;;;;;;5024460;28;20203;-74
2024/01/21 07:40:04;;;;;;;4.20;3.80;;;17.80;52.50;;;;;;5034325;28;20186;-73
2024/01/21 07:42:30;;;;;;;3.85;3.53;;;17.70;52.40;;;;;;5049802;28;20645;-73
2024/01/21 07:44:56;;;;;;;4.03;3.67;;;17.80;52.60;;;;;;5044047;28;20188;-73
2024/01/21 07:47:22;;;;;;;3.70;3.20;;;17.80;52.50;;;;;;5032092;28;20257;-73
2024/01/21 07:49:48;;;;;;;3.70;3.40;;;17.80;52.50;;;;;;5035292;28;20187;-72
2024/01/21 07:52:16;;;;;;;3.45;3.00;;;17.80;52.40;;;;;;5037327;28;20182;-72
2024/01/21 07:54:43;;;;;;;3.63;3.33;;;17.80;52.40;;;;;;5047611;28;20210;-72
2024/01/21 07:57:09;;;;;;;3.92;3.50;;;17.80;52.40;;;;;;5050513;28;20211;-73
2024/01/21 07:59:34;;;;;;;3.60;3.30;;;17.80;52.40;;;;;;5043524;28;20189;-73
2024/01/21 08:02:00;;;;;;;4.10;3.70;;;17.80;52.50;;;;;;5059352;28;20674;-73
2024/01/21 08:04:27;;;;;;;3.60;3.30;;;17.80;52.40;;;;;;5027213;28;20178;-72
2024/01/21 08:06:53;;;;;;;4.15;3.75;;;17.80;52.40;;;;;;5047419;28;20219;-72
2024/01/21 08:09:18;;;;;;;3.58;3.28;;;17.80;52.30;;;;;;5023700;28;20209;-72
2024/01/21 08:11:44;;;;;;;3.80;3.50;;;17.80;52.30;;;;;;5038462;28;20187;-72
2024/01/21 08:14:11;;;;;;;4.10;3.70;;;17.80;52.30;;;;;;5035586;28;20674;-72
2024/01/21 08:16:37;;;;;;;4.07;3.75;;;17.80;52.30;;;;;;5041697;28;20211;-72
2024/01/21 08:19:04;;;;;;;4.20;3.80;;;17.80;52.30;;;;;;5037188;28;20206;-72
2024/01/21 08:21:30;;;;;;;4.70;4.03;;;17.80;52.30;;;;;;5035693;28;20183;-72
2024/01/21 08:23:56;;;;;;;4.28;3.72;;;17.80;52.30;;;;;;5042038;28;20588;-72
2024/01/21 08:26:22;;;;;;;4.10;3.70;;;17.80;52.30;;;;;;5029351;28;20213;-72
2024/01/21 08:28:48;;;;;;;4.05;3.70;;;17.80;52.30;;;;;;5037461;28;20229;-72
2024/01/21 08:31:14;;;;;;;4.85;4.45;;;17.80;52.30;;;;;;5048088;28;20758;-72
2024/01/21 08:33:41;;;;;;;4.22;3.92;;;17.80;52.30;;;;;;5037210;28;20198;-72
2024/01/21 08:36:08;;;;;;;4.03;3.72;;;17.80;52.20;;;;;;5031171;28;20218;-72
2024/01/21 08:38:34;;;;;;;4.65;4.25;;;17.80;52.30;;;;;;5056101;28;20183;-71
2024/01/21 08:41:00;;;;;;;4.03;3.63;;;17.80;52.30;;;;;;5049727;28;20670;-73
2024/01/21 08:43:25;;;;;;;4.90;4.43;;;17.80;52.20;;;;;;5046822;28;20217;-73
2024/01/21 08:45:51;;;;;;;4.18;3.78;;;17.90;52.30;;;;;;5031906;28;20187;-73
2024/01/21 08:48:17;;;;;;;3.90;3.50;;;17.90;52.30;;;;;;5046200;28;20190;-72
2024/01/21 08:50:43;;;;;;;3.97;3.58;;;17.90;52.30;;;;;;5029811;28;20226;-72
2024/01/21 08:53:09;;;;;;;4.25;3.85;;;17.90;52.30;;;;;;5040734;28;20272;-72
2024/01/21 08:55:34;;;;;;;4.40;4.03;;;17.80;52.20;;;;;;5023957;28;20198;-72
2024/01/21 08:58:02;;;;;;;4.20;3.80;;;17.90;52.20;;;;;;5040662;28;20203;-72
2024/01/21 09:00:28;;;;;;;3.70;3.40;;;17.90;52.30;;;;;;5038091;28;20194;-73
2024/01/21 09:02:54;;;;;;;3.85;3.55;;;17.90;52.30;;;;;;5030261;28;20207;-73
2024/01/21 09:05:20;;;;;;;4.43;3.75;;;17.90;52.20;;;;;;5024671;28;20182;-73
2024/01/21 09:07:46;;;;;;;3.88;3.58;;;17.90;52.20;;;;;;5046707;28;20198;-72
2024/01/21 09:10:13;;;;;;;3.70;3.40;;;17.90;52.20;;;;;;5065720;28;20239;-72
2024/01/21 09:12:39;;;;;;;4.18;3.35;;;18.00;52.20;;;;;;5058150;28;20181;-72
2024/01/21 09:15:06;;;;;;;3.35;2.80;;;18.00;52.30;;;;;;5054115;28;20669;-72
2024/01/21 09:17:32;;;;;;;3.50;3.20;;;18.00;52.30;;;;;;5067614;28;20214;-72
2024/01/21 09:19:59;;;;;;;3.50;3.20;;;17.90;52.30;;;;;;5032029;28;20191;-72
2024/01/21 09:22:25;;;;;;;3.95;3.65;;;18.00;52.40;;;;;;5024731;28;20215;-72
2024/01/21 09:24:52;;;;;;;3.65;3.35;;;17.90;52.30;;;;;;5054398;28;20204;-72
2024/01/21 09:27:18;;;;;;;3.45;3.15;;;17.90;52.40;;;;;;5042224;28;20659;-73
2024/01/21 09:29:44;;;;;;;3.70;3.40;;;17.90;52.40;;;;;;5031298;28;20262;-73
2024/01/21 09:32:13;;;;;;;3.40;3.10;;;17.90;52.40;;;;;;5030290;28;20195;-73
2024/01/21 09:34:43;;;;;;;3.50;3.20;;;17.90;52.40;;;;;;5041695;28;20194;-74
2024/01/21 09:37:10;;;;;;;3.72;3.42;;;17.90;52.40;;;;;;5054357;28;20256;-72
2024/01/21 09:39:37;;;;;;;3.35;3.08;;;17.90;52.40;;;;;;5030933;28;20187;-73
2024/01/21 09:42:08;;;;;;;4.07;3.67;;;18.00;53.00;;;;;;5029229;28;20219;-73
2024/01/21 09:44:34;;;;;;;3.03;2.80;;;18.00;52.40;;;;;;5025904;28;20273;-73
2024/01/21 09:47:01;;;;;;;3.85;3.45;;;18.00;52.30;;;;;;5052720;28;20249;-73
2024/01/21 09:49:28;;;;;;;3.08;2.78;;;18.00;52.40;;;;;;5042748;28;20214;-73
2024/01/21 09:51:54;;;;;;;2.90;2.70;;;18.00;52.40;;;;;;5040086;28;20252;-73
2024/01/21 09:54:23;;;;;;;3.28;2.97;;;18.00;52.40;;;;;;5046026;28;20240;-73
2024/01/21 09:56:49;;;;;;;3.08;2.78;;;18.00;52.40;;;;;;5045045;28;20689;-72
2024/01/21 09:59:16;;;;;;;3.53;3.22;;;18.00;52.40;;;;;;5048360;28;20713;-72
2024/01/21 10:01:43;;;;;;;3.00;2.80;;;18.00;52.50;;;;;;5055244;28;20190;-72
2024/01/21 10:04:10;;;;;;;3.47;3.17;;;18.00;52.40;;;;;;5032818;28;20197;-72
2024/01/21 10:06:36;;;;;;;3.38;3.08;;;18.00;52.50;;;;;;5043413;28;20293;-72
2024/01/21 10:09:23;;;;;;;3.17;2.80;;;18.00;52.50;;;;;;5045340;28;20191;-72
2024/01/21 10:11:57;;;;;;;3.40;3.10;;;18.00;52.50;;;;;;5041988;28;20255;-73
2024/01/21 10:14:27;;;;;;;3.22;2.92;;;18.00;52.50;;;;;;5050778;28;20190;-72
2024/01/21 10:16:55;;;;;;;3.13;2.83;;;18.00;52.50;;;;;;5051445;28;20237;-72
2024/01/21 10:19:33;;;;;;;3.10;2.80;;;18.00;52.50;;;;;;5034098;28;20191;-73
2024/01/21 10:22:18;;;;;;;2.90;2.70;;;18.10;52.60;;;;;;5043206;28;20221;-73
2024/01/21 10:24:49;;;;;;;3.03;2.83;;;18.00;52.50;;;;;;5048688;28;20190;-72
2024/01/21 10:27:15;;;;;;;3.33;3.05;;;18.10;52.70;;;;;;5043862;28;20203;-72
2024/01/21 10:29:44;;;;;;;2.67;2.45;;;18.00;52.60;;;;;;5040991;28;20178;-72
2024/01/21 10:32:12;;;;;;;2.78;2.53;;;18.10;52.70;;;;;;5038745;28;20207;-73
2024/01/21 10:34:44;;;;;;;3.70;2.50;;;18.00;52.70;;;;;;5045842;28;20187;-72
2024/01/21 10:37:15;;;;;;;3.35;2.78;;;18.10;53.50;;;;;;5030505;28;20225;-73
2024/01/21 10:39:48;;;;;;;3.10;2.88;;;18.10;53.20;;;;;;5032621;28;20186;-72
2024/01/21 10:42:16;;;;;;;4.13;3.15;;;18.10;53.20;;;;;;5043509;28;20218;-72
2024/01/21 10:44:44;;;;;;;2.65;2.45;;;18.10;53.20;;;;;;5021127;28;20267;-72
2024/01/21 10:47:11;;;;;;;2.90;2.50;;;18.10;53.20;;;;;;5044944;28;20594;-72
2024/01/21 10:49:40;;;;;;;2.72;2.53;;;18.10;53.10;;;;;;5042229;28;20186;-72
2024/01/21 10:52:09;;;;;;;2.70;2.50;;;18.10;53.10;;;;;;5027937;28;20765;-72
2024/01/21 10:54:37;;;;;;;3.08;2.78;;;18.10;53.10;;;;;;5046472;28;20688;-72
2024/01/21 10:57:04;;;;;;;3.67;2.75;;;18.10;53.10;;;;;;5066796;28;20279;-73
2024/01/21 10:59:31;;;;;;;2.95;2.45;;;18.10;53.10;;;;;;5053502;28;20187;-72
2024/01/21 11:01:57;;;;;;;2.60;2.40;;;18.10;53.10;;;;;;5036117;28;20215;-72
2024/01/21 11:04:23;;;;;;;3.20;2.50;;;18.10;52.90;;;;;;5065803;28;20187;-72
2024/01/21 11:06:51;;;;;;;2.88;2.53;;;18.10;53.00;;;;;;5052016;28;20256;-73
2024/01/21 11:09:22;;;;;;;2.70;2.50;;;18.20;53.60;;;;;;5050941;28;20601;-72
2024/01/21 11:11:52;;;;;;;3.30;2.50;;;18.10;52.90;;;;;;5047767;28;20178;-72
2024/01/21 11:14:37;;;;;;;2.72;2.35;;;18.20;53.00;;;;;;5040238;28;20255;-73
2024/01/21 11:17:11;;;;;;;3.58;3.03;;;18.10;52.90;;;;;;5044385;28;20240;-72
2024/01/21 11:19:49;;;;;;;3.28;2.97;;;18.10;53.00;;;;;;5051339;28;20186;-73
2024/01/21 11:22:17;;;;;;;3.15;2.85;;;18.20;53.00;;;;;;5052714;28;20218;-72
2024/01/21 11:24:45;;;;;;;2.92;2.72;;;18.20;53.00;;;;;;5051797;28;20193;-72
2024/01/21 11:27:18;;;;;;;3.28;2.45;;;18.20;53.00;;;;;;5057856;28;20201;-73
2024/01/21 11:29:44;;;;;;;2.47;2.28;;;18.20;53.00;;;;;;5048261;28;20178;-72
2024/01/21 11:32:11;;;;;;;2.85;2.63;;;18.20;53.00;;;;;;5065537;28;20190;-73
2024/01/21 11:34:41;;;;;;;2.97;2.40;;;18.20;53.00;;;;;;5055975;28;20194;-72
2024/01/21 11:37:15;;;;;;;2.90;2.70;;;18.20;53.00;;;;;;5089359;28;20240;-72
2024/01/21 11:39:44;;;;;;;2.85;2.65;;;18.20;53.00;;;;;;5040732;28;20242;-72
2024/01/21 11:42:10;;;;;;;2.72;2.53;;;18.20;53.00;;;;;;5055434;28;20217;-72
2024/01/21 11:44:39;;;;;;;2.58;2.38;;;18.20;53.00;;;;;;5066758;28;20186;-73
2024/01/21 11:47:06;;;;;;;2.80;2.60;;;18.20;52.90;;;;;;5071909;28;20241;-72
2024/01/21 11:49:35;;;;;;;3.33;2.42;;;18.20;53.00;;;;;;5071728;28;20198;-72
2024/01/21 11:52:05;;;;;;;2.53;2.33;;;18.20;53.00;;;;;;5088330;28;20186;-72
2024/01/21 11:54:33;;;;;;;2.97;2.78;;;18.20;53.00;;;;;;5044436;28;20190;-72
2024/01/21 11:57:00;;;;;;;2.75;2.50;;;18.20;53.00;;;;;;5072980;28;20194;-72
2024/01/21 11:59:26;;;;;;;2.78;2.50;;;18.20;53.00;;;;;;5071906;28;20565;-73
2024/01/21 12:01:57;;;;;;;2.80;2.47;;;18.20;53.00;;;;;;5070919;28;20189;-72
2024/01/21 12:04:24;;;;;;;3.88;2.60;;;18.30;53.30;;;;;;5068748;28;20198;-72
2024/01/21 12:06:52;;;;;;;2.97;2.55;;;18.30;53.20;;;;;;5072224;28;20693;-72
2024/01/21 12:09:19;;;;;;;3.13;2.65;;;18.20;53.20;;;;;;5070289;28;20211;-72
2024/01/21 12:11:49;;;;;;;4.97;2.50;;;18.20;53.20;;;;;;5070853;28;20186;-72
2024/01/21 12:14:16;;;;;;;2.45;2.25;;;18.30;53.30;;;;;;5070536;28;20186;-72
2024/01/21 12:16:43;;;;;;;3.17;2.70;;;18.20;53.20;;;;;;5047532;28;20221;-71
2024/01/21 12:19:10;;;;;;;2.58;2.38;;;18.20;53.20;;;;;;5028561;28;20198;-73
2024/01/21 12:21:36;;;;;;;3.17;2.22;;;18.30;53.30;;;;;;5053888;28;20193;-72
2024/01/21 12:24:03;;;;;;;3.58;2.35;;;18.30;53.20;;;;;;5049185;28;20217;-72
2024/01/21 12:26:30;;;;;;;2.80;2.60;;;18.20;53.20;;;;;;5036054;28;20214;-73
2024/01/21 12:29:10;;;;;;;2.33;2.13;;;18.20;53.20;;;;;;5064648;28;20658;-75
2024/01/21 12:31:39;;;;;;;2.42;2.22;;;18.20;53.20;;;;;;5044948;28;20201;-72
2024/01/21 12:34:11;;;;;;;3.45;2.83;;;18.30;53.30;;;;;;5046303;28;20226;-73
2024/01/21 12:36:41;;;;;;;2.92;2.45;;;18.20;53.20;;;;;;5040348;28;20211;-73
2024/01/21 12:39:10;;;;;;;3.17;2.88;;;18.20;53.20;;;;;;5029052;28;20200;-74
2024/01/21 12:41:36;;;;;;;3.80;2.53;;;18.20;53.20;;;;;;5052068;28;20195;-73
2024/01/21 12:44:02;;;;;;;3.92;2.70;;;18.20;53.20;;;;;;5053936;28;20214;-73
2024/01/21 12:46:28;;;;;;;2.63;2.42;;;18.20;53.20;;;;;;5033890;28;20211;-73